Time;durP1;ratioP1;P1;durP2;ratioP2;P2;SDS_P1;SDS_P2;PMS_P1;PMS_P2;Temp;Humidity;BMP_temperature;BMP_pressure;BME280_temperature;BME280_humidity;BME280_pressure;Samples;Min_cycle;Max_cycle;Signal;HPM_P1;HPM_P2
2022/05/13 00:02:06;;;;;;;4.80;2.40;;;;;;;11.71;69.30;99529.88;103553;1300;22729;-25
2022/05/13 00:04:35;;;;;;;8.50;2.30;;;;;;;11.73;68.54;99529.65;103704;1300;25209;-25
2022/05/13 00:07:05;;;;;;;3.10;2.30;;;;;;;11.74;68.20;99529.41;103815;1300;22755;-28
2022/05/13 00:12:07;;;;;;;3.00;2.10;;;;;;;11.75;68.74;99525.52;103636;1300;23593;-29
2022/05/13 00:14:36;;;;;;;5.60;2.00;;;;;;;11.81;67.49;99524.86;103786;1300;25213;-29
2022/05/13 00:17:06;;;;;;;2.90;1.90;;;;;;;11.81;67.71;99524.09;103793;1300;22625;-31
2022/05/13 00:19:35;;;;;;;3.80;1.90;;;;;;;11.84;67.48;99524.95;103737;1300;24294;-25
2022/05/13 00:22:04;;;;;;;5.90;2.20;;;;;;;11.89;67.64;99523.77;103735;1300;22976;-25
2022/05/13 00:24:33;;;;;;;3.00;2.00;;;;;;;11.90;67.85;99521.00;103682;1300;25112;-25
2022/05/13 00:27:03;;;;;;;3.80;1.90;;;;;;;11.89;67.73;99521.29;103739;1300;22496;-26
2022/05/13 00:29:32;;;;;;;2.40;1.60;;;;;;;11.89;67.80;99520.77;103705;1300;25280;-25
2022/05/13 00:32:01;;;;;;;3.20;2.00;;;;;;;11.89;67.76;99516.93;103692;1300;24297;-24
2022/05/13 00:34:31;;;;;;;3.90;1.40;;;;;;;11.91;68.56;99514.38;103722;1300;23787;-25
2022/05/13 00:37:00;;;;;;;4.90;1.40;;;;;;;11.88;68.70;99515.78;103532;1300;23443;-30
2022/05/13 00:39:29;;;;;;;3.80;1.40;;;;;;;11.88;68.45;99515.11;103699;1300;22504;-23
2022/05/13 00:42:05;;;;;;;2.00;1.00;;;;;;;11.93;69.71;99513.06;103715;1303;24230;-26
2022/05/13 00:44:34;;;;;;;4.30;2.10;;;;;;;11.99;68.98;99503.84;103721;1300;22902;-29
2022/05/13 00:47:04;;;;;;;2.80;2.30;;;;;;;12.02;69.59;99506.34;103713;1300;23154;-28
2022/05/13 00:49:34;;;;;;;2.60;1.40;;;;;;;12.03;68.28;99508.61;103730;1300;25862;-25
2022/05/13 00:52:03;;;;;;;3.20;1.50;;;;;;;12.07;67.92;99510.48;103706;1299;22498;-28
2022/05/13 00:54:32;;;;;;;3.00;2.00;;;;;;;12.09;68.58;99511.83;103730;1300;24227;-29
2022/05/13 00:57:01;;;;;;;3.30;2.30;;;;;;;12.03;72.08;99517.07;103711;1300;23808;-24
2022/05/13 00:59:31;;;;;;;2.00;1.10;;;;;;;12.03;70.34;99517.44;103675;1300;23885;-25
2022/05/13 01:02:00;;;;;;;4.10;2.60;;;;;;;12.04;68.86;99518.77;103586;1300;25869;-25
2022/05/13 01:04:29;;;;;;;4.00;2.30;;;;;;;12.07;68.81;99520.55;103634;1300;24316;-30
2022/05/13 01:06:59;;;;;;;7.00;3.90;;;;;;;12.07;69.78;99525.56;103789;1300;24230;-26
2022/05/13 01:09:30;;;;;;;6.20;3.00;;;;;;;12.09;70.58;99523.88;103699;1300;25112;-25
2022/05/13 01:11:59;;;;;;;3.20;2.50;;;;;;;12.11;70.13;99523.30;103711;1300;22502;-25
2022/05/13 01:14:31;;;;;;;4.00;2.10;;;;;;;12.12;69.90;99520.48;103782;1300;22514;-25
2022/05/13 01:19:39;;;;;;;5.90;4.20;;;;;;;12.10;69.98;99507.69;103712;1300;25142;-29
2022/05/13 01:22:12;;;;;;;6.70;4.20;;;;;;;12.04;70.31;99507.54;103744;1300;24349;-25
2022/05/13 01:24:42;;;;;;;4.60;3.30;;;;;;;11.99;69.11;99500.37;103753;1300;24282;-25
2022/05/13 01:27:11;;;;;;;4.10;2.90;;;;;;;11.91;72.52;99493.27;103795;1300;25021;-28
2022/05/13 01:29:40;;;;;;;12.50;3.30;;;;;;;11.84;70.97;99489.46;103723;1300;25098;-25
2022/05/13 01:32:08;;;;;;;3.40;2.10;;;;;;;11.75;71.36;99490.33;103821;1300;22575;-28
2022/05/13 01:34:37;;;;;;;2.90;2.30;;;;;;;11.65;72.76;99499.45;103747;1300;22524;-26
2022/05/13 01:37:06;;;;;;;6.40;4.00;;;;;;;11.55;73.57;99499.15;103772;1300;25098;-30
2022/05/13 01:39:35;;;;;;;6.70;3.00;;;;;;;11.43;74.37;99498.71;103713;1300;23612;-26
2022/05/13 01:42:05;;;;;;;2.90;2.20;;;;;;;11.33;73.36;99500.85;103735;1300;25000;-28
2022/05/13 01:44:34;;;;;;;4.60;2.60;;;;;;;11.21;71.36;99492.06;103741;1300;24245;-25
2022/05/13 01:47:03;;;;;;;5.70;2.30;;;;;;;11.11;72.34;99494.66;103700;1300;23807;-25
2022/05/13 01:49:32;;;;;;;5.30;2.60;;;;;;;11.01;72.09;99494.35;103729;1300;25019;-28
2022/05/13 01:52:01;;;;;;;2.40;1.60;;;;;;;10.94;70.84;99494.18;103651;1300;22511;-25
2022/05/13 01:54:30;;;;;;;8.60;2.30;;;;;;;10.81;71.32;99489.34;103765;1300;24275;-26
2022/05/13 01:56:59;;;;;;;19.80;14.70;;;;;;;10.67;72.23;99487.95;103816;1300;25104;-24
2022/05/13 01:59:28;;;;;;;26.40;18.80;;;;;;;10.55;75.45;99487.69;103792;1300;24294;-25
2022/05/13 02:01:57;;;;;;;4.60;3.50;;;;;;;10.47;74.59;99486.91;103702;1300;22917;-27
2022/05/13 02:04:26;;;;;;;5.20;2.90;;;;;;;10.38;74.87;99486.22;103729;1300;24298;-29
2022/05/13 02:06:55;;;;;;;5.90;2.50;;;;;;;10.32;73.35;99491.09;103772;1300;23607;-25
2022/05/13 02:09:24;;;;;;;7.20;2.80;;;;;;;10.27;75.28;99488.27;103773;1300;23599;-25
2022/05/13 02:11:54;;;;;;;5.00;2.60;;;;;;;10.24;74.71;99486.98;103692;1300;22497;-28
2022/05/13 02:14:23;;;;;;;3.80;2.60;;;;;;;10.20;74.76;99481.78;103709;1300;24243;-29
2022/05/13 02:16:52;;;;;;;6.00;2.30;;;;;;;10.17;74.62;99477.73;103753;1300;24308;-25
2022/05/13 02:19:21;;;;;;;6.00;3.30;;;;;;;10.14;74.07;99474.91;103715;1300;22603;-25
2022/05/13 02:21:50;;;;;;;3.40;2.30;;;;;;;10.08;75.27;99471.88;103700;1300;22789;-28
2022/05/13 02:24:19;;;;;;;5.90;2.60;;;;;;;10.06;76.40;99472.80;103610;1300;22764;-24
2022/05/13 02:26:48;;;;;;;5.00;2.40;;;;;;;10.06;75.18;99472.43;103725;1300;22932;-25
2022/05/13 02:29:17;;;;;;;3.60;1.90;;;;;;;10.03;74.47;99469.98;103734;1299;22496;-24
2022/05/13 02:31:46;;;;;;;4.20;1.70;;;;;;;9.97;74.82;99466.28;103722;1300;24337;-28
2022/05/13 02:34:15;;;;;;;4.50;1.70;;;;;;;9.94;74.90;99462.54;103715;1300;23424;-24
2022/05/13 02:36:44;;;;;;;7.90;1.90;;;;;;;9.90;74.79;99461.05;103780;1300;25222;-27
2022/05/13 02:39:13;;;;;;;4.00;1.90;;;;;;;9.85;75.35;99465.23;103653;1300;23976;-30
2022/05/13 02:41:44;;;;;;;2.20;1.70;;;;;;;9.81;75.17;99466.02;103774;1300;25083;-28
2022/05/13 02:44:14;;;;;;;1.90;1.50;;;;;;;9.80;75.17;99467.17;103756;1300;25101;-25
2022/05/13 02:46:43;;;;;;;3.10;1.80;;;;;;;9.79;76.01;99467.65;103781;1300;23895;-28
2022/05/13 02:49:12;;;;;;;2.00;1.60;;;;;;;9.79;75.66;99469.96;103749;1300;24213;-25
2022/05/13 02:51:42;;;;;;;2.80;2.00;;;;;;;9.78;75.49;99467.40;103749;1300;22829;-30
2022/05/13 02:54:11;;;;;;;2.50;1.20;;;;;;;9.77;76.34;99468.13;103688;1300;25216;-24
2022/05/13 02:56:40;;;;;;;4.80;2.60;;;;;;;9.77;79.74;99466.35;103718;1300;23644;-27
2022/05/13 02:59:10;;;;;;;4.50;1.90;;;;;;;9.74;81.01;99466.40;103714;1300;22714;-25
2022/05/13 03:01:38;;;;;;;2.80;2.10;;;;;;;9.74;77.68;99468.46;103809;1300;22636;-27
2022/05/13 03:04:07;;;;;;;7.00;4.80;;;;;;;9.75;77.18;99470.09;103570;1300;22499;-25
2022/05/13 03:06:36;;;;;;;7.10;5.80;;;;;;;9.75;77.31;99465.39;103737;1300;25105;-27
2022/05/13 03:09:06;;;;;;;9.20;5.70;;;;;;;9.72;80.23;99468.62;103660;1300;22494;-27
2022/05/13 03:11:36;;;;;;;8.10;7.20;;;;;;;9.71;79.51;99472.48;103754;1300;25098;-29
2022/05/13 03:14:05;;;;;;;4.80;3.90;;;;;;;9.72;79.00;99471.37;103674;1300;24421;-29
2022/05/13 03:16:35;;;;;;;6.00;4.50;;;;;;;9.77;79.29;99470.19;103622;1299;22758;-28
2022/05/13 03:19:04;;;;;;;5.40;4.50;;;;;;;9.81;78.19;99469.73;103746;1300;23949;-24
2022/05/13 03:21:33;;;;;;;3.30;2.70;;;;;;;9.86;76.89;99464.44;103707;1300;23754;-28
2022/05/13 03:24:03;;;;;;;7.00;2.20;;;;;;;9.87;77.05;99465.91;103766;1300;23893;-28
2022/05/13 03:26:32;;;;;;;8.20;3.10;;;;;;;9.89;77.99;99463.22;103613;1300;22825;-30
2022/05/13 03:29:01;;;;;;;4.40;2.90;;;;;;;9.95;77.84;99464.73;103797;1300;22699;-24
2022/05/13 03:31:31;;;;;;;11.70;5.20;;;;;;;10.04;77.69;99457.71;103685;1299;24281;-30
2022/05/13 03:34:00;;;;;;;7.30;4.70;;;;;;;10.14;77.55;99453.31;103710;1299;24994;-30
2022/05/13 03:36:31;;;;;;;8.70;3.90;;;;;;;10.22;77.83;99458.09;103724;1300;22764;-30
2022/05/13 03:39:00;;;;;;;9.90;3.70;;;;;;;10.28;78.69;99450.58;103708;1300;24193;-25
2022/05/13 03:41:29;;;;;;;4.60;3.60;;;;;;;10.33;78.32;99451.52;103723;1300;24211;-28
2022/05/13 03:43:58;;;;;;;5.10;2.70;;;;;;;10.34;77.38;99457.73;103753;1300;22495;-28
2022/05/13 03:46:27;;;;;;;2.90;1.80;;;;;;;10.34;77.27;99454.47;103808;1300;24274;-24
2022/05/13 03:48:55;;;;;;;4.00;2.90;;;;;;;10.37;76.48;99456.80;103821;1300;22505;-24
2022/05/13 03:51:24;;;;;;;3.40;2.60;;;;;;;10.41;76.73;99461.30;103731;1300;23420;-30
2022/05/13 03:53:53;;;;;;;5.10;2.70;;;;;;;10.46;76.26;99464.44;103562;1303;24240;-25
2022/05/13 03:56:23;;;;;;;7.90;2.60;;;;;;;10.47;76.15;99462.38;103668;1300;24208;-24
2022/05/13 03:58:52;;;;;;;4.70;3.50;;;;;;;10.50;76.13;99462.73;103706;1300;22822;-25
2022/05/13 04:01:21;;;;;;;3.10;2.80;;;;;;;10.49;76.71;99461.95;103716;1300;23909;-25
2022/05/13 04:03:50;;;;;;;3.00;2.40;;;;;;;10.48;77.02;99459.54;103706;1300;24230;-25
2022/05/13 04:11:26;;;;;;;4.40;2.10;;;;;;;10.70;76.96;99458.71;103836;1299;22684;-25
2022/05/13 04:16:27;;;;;;;2.70;1.50;;;;;;;11.03;76.18;99455.16;103380;1300;444261;-27
2022/05/13 04:18:58;;;;;;;2.40;1.80;;;;;;;11.12;76.05;99456.63;103707;1300;23612;-27
2022/05/13 04:21:29;;;;;;;7.60;2.20;;;;;;;11.20;76.38;99459.01;103756;1299;24215;-28
2022/05/13 04:23:59;;;;;;;2.60;2.00;;;;;;;11.31;75.96;99459.61;103698;1300;22623;-28
2022/05/13 04:26:29;;;;;;;3.60;1.60;;;;;;;11.42;75.91;99460.15;103801;1300;25449;-28
2022/05/13 04:28:59;;;;;;;4.20;2.10;;;;;;;11.51;75.65;99458.21;103794;1300;23736;-27
2022/05/13 04:31:30;;;;;;;5.00;2.00;;;;;;;11.62;75.30;99462.20;103670;1300;24291;-28
2022/05/13 04:33:59;;;;;;;3.20;1.70;;;;;;;11.74;75.10;99460.44;103785;1300;24254;-31
2022/05/13 04:36:29;;;;;;;3.10;1.90;;;;;;;11.88;74.48;99458.51;103743;1300;24188;-31
2022/05/13 04:38:58;;;;;;;6.90;1.40;;;;;;;12.07;74.17;99460.09;103714;1300;23612;-27
2022/05/13 04:44:00;;;;;;;3.30;2.30;;;;;;;12.61;72.61;99461.03;103724;1300;23793;-28
2022/05/13 04:46:30;;;;;;;3.20;2.10;;;;;;;12.85;72.09;99466.52;103771;1300;23745;-28
2022/05/13 04:48:59;;;;;;;3.40;2.70;;;;;;;13.05;72.46;99460.75;103713;1300;25209;-28
2022/05/13 04:51:28;;;;;;;5.30;2.50;;;;;;;13.19;72.22;99465.33;103793;1300;24315;-24
2022/05/13 04:53:58;;;;;;;8.10;2.10;;;;;;;13.27;70.46;99466.48;103748;1300;22648;-25
2022/05/13 04:56:28;;;;;;;4.20;2.20;;;;;;;13.39;71.36;99464.66;103781;1300;24234;-25
2022/05/13 04:58:57;;;;;;;4.40;2.00;;;;;;;13.48;70.97;99461.52;103653;1300;24368;-24
2022/05/13 05:01:27;;;;;;;7.90;1.90;;;;;;;13.55;70.25;99467.23;103592;1303;24246;-25
2022/05/13 05:03:56;;;;;;;12.40;5.20;;;;;;;13.59;70.13;99468.32;103704;1300;22508;-26
2022/05/13 05:06:25;;;;;;;13.30;5.90;;;;;;;13.67;70.12;99470.48;103669;1300;24332;-27
2022/05/13 05:08:56;;;;;;;8.20;4.80;;;;;;;13.76;69.90;99466.02;103750;1299;24254;-26
2022/05/13 05:11:25;;;;;;;5.10;3.40;;;;;;;13.85;69.88;99462.96;103617;1300;22512;-28
2022/05/13 05:13:54;;;;;;;13.30;3.40;;;;;;;13.94;69.66;99461.88;103683;1300;24325;-28
2022/05/13 05:16:23;;;;;;;10.00;2.80;;;;;;;13.96;69.16;99465.85;103820;1300;22656;-28
2022/05/13 05:18:52;;;;;;;7.40;2.20;;;;;;;14.01;68.78;99463.95;103633;1300;22603;-28
2022/05/13 05:21:21;;;;;;;4.90;2.10;;;;;;;14.10;68.58;99463.06;103717;1299;22496;-28
2022/05/13 05:23:50;;;;;;;4.70;1.80;;;;;;;14.18;68.54;99468.73;103790;1300;22963;-28
2022/05/13 05:26:19;;;;;;;2.20;1.80;;;;;;;14.26;68.59;99464.73;103752;1300;22612;-26
2022/05/13 05:28:51;;;;;;;4.20;1.80;;;;;;;14.33;68.10;99464.48;103706;1300;24211;-30
2022/05/13 05:31:20;;;;;;;10.30;3.00;;;;;;;14.45;67.93;99464.85;103753;1300;23612;-25
2022/05/13 05:33:49;;;;;;;2.80;1.80;;;;;;;14.55;67.22;99465.58;103715;1300;25121;-28
2022/05/13 05:36:18;;;;;;;6.90;2.00;;;;;;;14.71;67.10;99468.36;103746;1300;22506;-28
2022/05/13 05:38:48;;;;;;;4.50;2.00;;;;;;;14.90;66.82;99471.12;103725;1300;24974;-24
2022/05/13 05:41:18;;;;;;;4.20;1.90;;;;;;;15.02;66.28;99471.31;103582;1300;24346;-24
2022/05/13 05:43:47;;;;;;;3.00;1.60;;;;;;;15.09;65.77;99472.02;103776;1300;24291;-27
2022/05/13 05:46:16;;;;;;;1.90;1.40;;;;;;;15.19;65.07;99469.80;103713;1300;24295;-30
2022/05/13 05:48:45;;;;;;;2.70;1.80;;;;;;;15.37;64.58;99469.51;103631;1300;24371;-30
2022/05/13 05:51:14;;;;;;;6.80;1.90;;;;;;;15.56;64.22;99468.02;103697;1300;23649;-30
2022/05/13 05:58:50;;;;;;;8.10;1.80;;;;;;;15.80;61.79;99473.09;103467;1300;24451;-25
2022/05/13 06:01:19;;;;;;;8.10;1.70;;;;;;;15.80;62.22;99472.59;103777;1300;24248;-28
2022/05/13 06:03:48;;;;;;;2.70;1.90;;;;;;;15.99;62.61;99466.20;103780;1300;22874;-28
2022/05/13 06:06:17;;;;;;;2.40;1.50;;;;;;;16.08;63.10;99467.98;103731;1300;24205;-25
2022/05/13 06:08:46;;;;;;;3.30;1.30;;;;;;;16.02;64.34;99467.13;103758;1300;24348;-28
2022/05/13 06:11:15;;;;;;;2.80;1.30;;;;;;;15.95;62.74;99468.17;103772;1300;24299;-25
2022/05/13 06:13:45;;;;;;;1.30;0.90;;;;;;;16.00;61.60;99471.18;103689;1300;25111;-28
2022/05/13 06:16:14;;;;;;;7.60;1.80;;;;;;;16.21;60.20;99473.48;103674;1300;22774;-25
2022/05/13 06:18:43;;;;;;;3.60;1.30;;;;;;;16.27;58.70;99476.51;103720;1300;24297;-28
2022/05/13 06:21:12;;;;;;;2.40;1.70;;;;;;;16.38;58.50;99478.02;103628;1300;23510;-26
2022/05/13 06:23:41;;;;;;;1.40;0.90;;;;;;;16.62;59.25;99475.70;103744;1300;24229;-25
2022/05/13 06:26:10;;;;;;;5.50;1.50;;;;;;;16.73;59.84;99484.00;103755;1300;22504;-24
2022/05/13 06:28:39;;;;;;;2.90;1.20;;;;;;;16.99;59.94;99483.59;103751;1300;23615;-27
2022/05/13 06:31:09;;;;;;;5.00;1.10;;;;;;;17.25;59.49;99480.86;103804;1300;24375;-24
2022/05/13 06:33:38;;;;;;;2.80;1.00;;;;;;;17.41;57.54;99480.02;103733;1300;25348;-26
2022/05/13 06:36:08;;;;;;;2.00;1.00;;;;;;;17.60;56.97;99477.13;103707;1300;22741;-29
2022/05/13 06:38:37;;;;;;;2.30;1.00;;;;;;;17.74;55.86;99475.59;103722;1300;22527;-28
2022/05/13 06:41:06;;;;;;;1.90;0.80;;;;;;;17.76;55.35;99476.60;103757;1300;23945;-26
2022/05/13 06:43:35;;;;;;;4.20;1.00;;;;;;;17.88;54.20;99471.79;103741;1300;23983;-26
2022/05/13 06:46:04;;;;;;;3.80;0.90;;;;;;;17.89;53.41;99472.91;103718;1300;22557;-24
2022/05/13 06:48:33;;;;;;;2.00;0.80;;;;;;;18.02;54.23;99471.58;103770;1300;24262;-29
2022/05/13 06:51:02;;;;;;;3.20;1.00;;;;;;;18.22;53.17;99470.32;103741;1300;24234;-25
2022/05/13 06:53:31;;;;;;;1.90;0.90;;;;;;;18.41;52.99;99466.45;103701;1300;23533;-28
2022/05/13 06:56:00;;;;;;;1.60;0.80;;;;;;;18.75;53.68;99464.56;103683;1300;22513;-25
2022/05/13 06:58:29;;;;;;;1.20;0.70;;;;;;;19.25;51.47;99464.48;103704;1300;24192;-28
2022/05/13 07:00:58;;;;;;;2.70;0.80;;;;;;;19.63;51.64;99460.14;103649;1300;23510;-28
2022/05/13 07:03:27;;;;;;;1.40;1.10;;;;;;;20.03;49.15;99459.49;103754;1300;23593;-29
2022/05/13 07:05:56;;;;;;;7.40;0.90;;;;;;;20.55;47.92;99457.27;103771;1299;24661;-28
2022/05/13 07:08:25;;;;;;;5.10;0.80;;;;;;;20.56;46.83;99457.61;103732;1300;24013;-24
2022/05/13 07:10:54;;;;;;;1.60;0.90;;;;;;;21.13;45.70;99455.98;103556;1300;24214;-24
2022/05/13 07:13:23;;;;;;;1.40;0.80;;;;;;;21.10;44.30;99459.36;103726;1300;24977;-24
2022/05/13 07:15:52;;;;;;;5.60;0.70;;;;;;;21.04;44.76;99456.04;103737;1300;22501;-27
2022/05/13 07:18:21;;;;;;;3.40;0.80;;;;;;;21.50;45.75;99453.40;103732;1300;22904;-28
2022/05/13 07:20:50;;;;;;;6.70;1.30;;;;;;;22.03;44.37;99447.45;103663;1300;24208;-24
2022/05/13 07:23:19;;;;;;;1.10;0.60;;;;;;;22.43;42.43;99443.35;103759;1300;24215;-24
2022/05/13 07:25:48;;;;;;;2.50;0.90;;;;;;;22.12;42.59;99449.55;103732;1300;23634;-30
2022/05/13 07:28:17;;;;;;;3.70;0.40;;;;;;;22.33;41.60;99446.31;103795;1300;22496;-24
2022/05/13 07:30:47;;;;;;;1.00;0.50;;;;;;;22.47;39.78;99444.02;103677;1300;24342;-30
2022/05/13 07:33:17;;;;;;;0.40;0.20;;;;;;;22.28;40.93;99441.45;103728;1300;24362;-28
2022/05/13 07:35:46;;;;;;;0.40;0.30;;;;;;;22.31;38.93;99442.37;103698;1300;24294;-30
2022/05/13 07:38:15;;;;;;;2.10;0.40;;;;;;;22.52;39.53;99440.02;103672;1300;23813;-24
2022/05/13 07:43:17;;;;;;;3.40;0.20;;;;;;;23.47;38.99;99433.38;103734;1300;22496;-28
2022/05/13 07:45:46;;;;;;;2.00;0.50;;;;;;;23.93;36.34;99432.73;103716;1300;23599;-24
2022/05/13 07:48:15;;;;;;;1.60;0.50;;;;;;;23.89;34.55;99434.56;103712;1300;24211;-28
2022/05/13 07:50:44;;;;;;;16.60;0.60;;;;;;;23.62;32.84;99435.93;103752;1300;24310;-28
2022/05/13 07:53:13;;;;;;;1.20;0.40;;;;;;;24.05;33.75;99435.27;103753;1300;22509;-28
2022/05/13 07:55:42;;;;;;;0.50;0.20;;;;;;;23.88;32.11;99440.05;103696;1300;24313;-24
2022/05/13 07:58:11;;;;;;;1.50;0.20;;;;;;;23.89;32.87;99436.09;103597;1301;23536;-28
2022/05/13 08:00:42;;;;;;;0.80;0.30;;;;;;;23.81;32.87;99434.23;103729;1300;22897;-24
2022/05/13 08:03:13;;;;;;;0.30;0.20;;;;;;;23.57;32.50;99434.77;103736;1299;25373;-28
2022/05/13 08:05:44;;;;;;;0.20;0.10;;;;;;;23.80;32.61;99436.54;103756;1300;24966;-24
2022/05/13 08:08:16;;;;;;;2.10;0.30;;;;;;;24.07;32.85;99433.90;103770;1300;25338;-28
2022/05/13 08:10:48;;;;;;;4.50;0.70;;;;;;;24.42;32.71;99429.09;103718;1300;24346;-24
2022/05/13 08:13:18;;;;;;;;;;;;;;;24.98;31.21;99431.39;103756;1300;23858;-28
2022/05/13 08:15:47;;;;;;;0.30;0.20;;;;;;;24.76;30.89;99427.60;103731;1300;23642;-26
2022/05/13 08:18:17;;;;;;;0.30;0.20;;;;;;;24.72;30.21;99424.23;103719;1300;25418;-24
2022/05/13 08:20:46;;;;;;;0.20;0.20;;;;;;;24.61;31.06;99425.75;103772;1300;24402;-24
2022/05/13 08:23:15;;;;;;;0.80;0.30;;;;;;;24.92;29.36;99424.53;103714;1299;22599;-24
2022/05/13 08:25:44;;;;;;;0.60;0.20;;;;;;;24.67;28.96;99419.55;103703;1299;25102;-24
2022/05/13 08:28:14;;;;;;;0.40;0.20;;;;;;;24.47;29.38;99420.10;103780;1300;22532;-27
2022/05/13 08:30:43;;;;;;;0.30;0.20;;;;;;;24.17;30.86;99422.78;103726;1300;23818;-25
2022/05/13 08:33:12;;;;;;;0.40;0.30;;;;;;;24.10;30.61;99422.70;103741;1300;22489;-28
2022/05/13 08:35:46;;;;;;;17.40;0.50;;;;;;;24.17;31.17;99419.88;103753;1300;24851;-24
2022/05/13 08:38:17;;;;;;;0.70;0.40;;;;;;;24.50;31.46;99416.40;103718;1299;25238;-24
2022/05/13 08:40:49;;;;;;;0.50;0.30;;;;;;;25.14;30.72;99413.36;103684;1300;23917;-24
2022/05/13 08:43:23;;;;;;;7.30;0.40;;;;;;;25.64;30.34;99413.86;103689;1300;22521;-24
2022/05/13 08:45:55;;;;;;;2.00;0.60;;;;;;;26.31;30.49;99404.63;103659;1300;24260;-24
2022/05/13 08:48:30;;;;;;;1.70;0.20;;;;;;;26.80;28.15;99400.17;103731;1300;22910;-28
2022/05/13 08:51:03;;;;;;;2.50;0.40;;;;;;;26.53;28.90;99398.89;103726;1299;24202;-24
2022/05/13 08:53:36;;;;;;;1.80;0.60;;;;;;;26.89;29.28;99395.92;103688;1299;24217;-28
2022/05/13 08:56:08;;;;;;;2.20;0.60;;;;;;;27.07;26.72;99390.80;103530;1300;22498;-25
2022/05/13 08:58:42;;;;;;;0.50;0.40;;;;;;;26.95;27.15;99392.27;103727;1300;25352;-24
2022/05/13 09:01:23;;;;;;;0.80;0.30;;;;;;;26.43;28.91;99388.36;103660;1300;22717;-28
2022/05/13 09:03:54;;;;;;;0.90;0.50;;;;;;;26.32;28.53;99383.04;103742;1300;24243;-28
2022/05/13 09:06:28;;;;;;;0.80;0.20;;;;;;;26.38;28.41;99377.25;103700;1300;24255;-25
2022/05/13 09:08:58;;;;;;;8.50;0.40;;;;;;;27.03;27.49;99375.77;103810;1300;23921;-28
2022/05/13 09:11:30;;;;;;;2.80;0.50;;;;;;;26.88;28.08;99373.08;103669;1300;24294;-28
2022/05/13 09:14:05;;;;;;;2.70;0.20;;;;;;;27.18;27.41;99368.85;103762;1300;23606;-28
2022/05/13 09:16:42;;;;;;;3.00;0.40;;;;;;;27.30;27.10;99366.13;103703;1300;24993;-28
2022/05/13 09:19:14;;;;;;;1.50;0.40;;;;;;;27.59;25.88;99365.52;103800;1300;22505;-24
2022/05/13 09:21:44;;;;;;;0.20;0.20;;;;;;;26.64;27.29;99362.84;103721;1300;23612;-24
2022/05/13 09:24:13;;;;;;;0.30;0.10;;;;;;;25.64;28.35;99366.16;103726;1300;23513;-24
2022/05/13 09:26:43;;;;;;;0.70;0.20;;;;;;;25.81;28.23;99364.44;103750;1300;24260;-24
2022/05/13 09:29:14;;;;;;;1.00;0.30;;;;;;;25.93;26.97;99366.02;103710;1300;24240;-28
2022/05/13 09:31:47;;;;;;;2.10;0.40;;;;;;;25.29;27.36;99359.60;103719;1300;25217;-27
2022/05/13 09:34:29;;;;;;;0.70;0.30;;;;;;;25.12;26.65;99357.16;103676;1299;23896;-28
2022/05/13 09:37:03;;;;;;;8.70;0.40;;;;;;;25.26;27.02;99350.61;103702;1300;22891;-28
2022/05/13 09:39:35;;;;;;;0.40;0.20;;;;;;;25.61;27.62;99344.95;103820;1300;24239;-25
2022/05/13 09:42:16;;;;;;;1.80;0.40;;;;;;;25.81;28.01;99337.74;103809;1300;24339;-28
2022/05/13 09:44:46;;;;;;;5.60;0.30;;;;;;;24.87;27.99;99342.04;103747;1300;24311;-25
2022/05/13 09:47:24;;;;;;;1.00;0.30;;;;;;;24.60;28.77;99333.50;103762;1300;25219;-28
2022/05/13 09:49:53;;;;;;;0.50;0.30;;;;;;;24.27;29.02;99325.02;103527;1300;24300;-24
2022/05/13 09:52:27;;;;;;;4.50;0.30;;;;;;;24.70;29.12;99329.44;103669;1300;22493;-24
2022/05/13 09:55:03;;;;;;;0.50;0.30;;;;;;;24.53;29.83;99323.02;103658;1300;24212;-24
2022/05/13 09:57:34;;;;;;;2.70;0.30;;;;;;;24.14;31.48;99317.95;103589;1300;25237;-28
2022/05/13 10:00:06;;;;;;;0.70;0.40;;;;;;;23.62;31.53;99318.40;103668;1300;25341;-24
2022/05/13 10:02:37;;;;;;;0.90;0.30;;;;;;;23.27;32.05;99314.85;103688;1300;22509;-24
2022/05/13 10:05:14;;;;;;;0.70;0.30;;;;;;;23.79;31.18;99309.11;103852;1300;25222;-24
2022/05/13 10:07:50;;;;;;;2.70;0.30;;;;;;;24.21;31.13;99309.09;103748;1300;24211;-28
2022/05/13 10:15:34;;;;;;;0.50;0.50;;;;;;;26.44;29.42;99292.29;103744;1299;22469;-24
2022/05/13 10:18:08;;;;;;;1.40;0.50;;;;;;;26.84;28.21;99294.67;103705;1300;24233;-28
2022/05/13 10:20:40;;;;;;;7.50;1.10;;;;;;;27.04;27.49;99281.85;103708;1297;23804;-24
2022/05/13 10:23:20;;;;;;;0.40;0.30;;;;;;;25.93;28.62;99291.39;103763;1300;23209;-24
2022/05/13 10:25:52;;;;;;;1.50;0.40;;;;;;;24.90;29.34;99294.21;103685;1300;24404;-28
2022/05/13 10:28:24;;;;;;;1.30;0.30;;;;;;;24.67;29.54;99290.23;103720;1300;25041;-24
2022/05/13 10:30:56;;;;;;;2.30;0.50;;;;;;;24.75;30.43;99285.50;103710;1299;24231;-24
2022/05/13 10:33:28;;;;;;;8.40;0.30;;;;;;;25.01;30.48;99278.86;103731;1300;22500;-28
2022/05/13 10:36:03;;;;;;;1.70;0.20;;;;;;;25.59;29.95;99276.28;103724;1300;22622;-24
2022/05/13 10:38:38;;;;;;;1.00;0.30;;;;;;;25.87;29.29;99274.61;103774;1300;25114;-28
2022/05/13 10:41:18;;;;;;;0.50;0.20;;;;;;;26.02;28.56;99267.74;103685;1300;24286;-26
2022/05/13 10:44:19;;;;;;;1.00;0.60;;;;;;;25.55;29.22;99257.60;103715;1300;24301;-24
2022/05/13 10:46:50;;;;;;;0.70;0.50;;;;;;;26.10;28.91;99258.15;103789;1300;24253;-24
2022/05/13 10:49:19;;;;;;;1.80;0.20;;;;;;;26.39;28.90;99255.92;103720;1300;24217;-24
2022/05/13 10:51:56;;;;;;;9.60;0.90;;;;;;;26.40;28.50;99252.36;103781;1300;24275;-24
2022/05/13 10:54:30;;;;;;;1.00;0.50;;;;;;;26.36;29.08;99253.00;103682;1300;22935;-28
2022/05/13 10:57:09;;;;;;;0.70;0.40;;;;;;;26.36;28.59;99252.88;103700;1300;24215;-24
2022/05/13 10:59:43;;;;;;;6.60;0.60;;;;;;;26.04;28.81;99244.58;103740;1300;23816;-24
2022/05/13 11:02:12;;;;;;;2.20;0.30;;;;;;;25.65;30.03;99233.52;103679;1299;24297;-28
2022/05/13 11:04:45;;;;;;;8.60;0.30;;;;;;;25.99;30.40;99227.80;103756;1300;24255;-24
2022/05/13 11:07:21;;;;;;;4.40;0.40;;;;;;;26.39;29.23;99223.75;103704;1300;23806;-25
2022/05/13 11:10:08;;;;;;;0.70;0.40;;;;;;;25.98;28.72;99217.20;103731;1300;23606;-24
2022/05/13 11:12:49;;;;;;;0.90;0.50;;;;;;;25.63;29.86;99208.90;103683;1300;23634;-24
2022/05/13 11:15:26;;;;;;;3.70;0.70;;;;;;;25.54;30.71;99215.88;103732;1300;22729;-24
2022/05/13 11:18:02;;;;;;;5.40;0.50;;;;;;;26.37;29.85;99217.77;103708;1299;22508;-28
2022/05/13 11:20:35;;;;;;;6.00;0.30;;;;;;;26.58;29.06;99212.67;103774;1300;22895;-24
2022/05/13 11:23:07;;;;;;;1.10;0.40;;;;;;;26.41;28.71;99210.70;103617;1300;24227;-24
2022/05/13 11:26:00;;;;;;;2.10;0.60;;;;;;;26.09;29.40;99207.95;103678;1300;24212;-24
2022/05/13 11:28:34;;;;;;;1.80;0.60;;;;;;;25.79;30.36;99201.66;103698;1300;25018;-24
2022/05/13 11:31:10;;;;;;;1.60;0.60;;;;;;;25.82;29.15;99200.90;103701;1300;23081;-24
2022/05/13 11:33:43;;;;;;;2.70;1.00;;;;;;;25.50;29.53;99204.81;103688;1300;24211;-29
2022/05/13 11:36:16;;;;;;;1.30;0.30;;;;;;;25.55;29.30;99205.20;103765;1299;23804;-28
2022/05/13 11:39:05;;;;;;;1.00;0.60;;;;;;;25.76;29.47;99203.80;103703;1300;22506;-28
2022/05/13 11:41:40;;;;;;;2.30;0.40;;;;;;;26.65;29.63;99197.16;103542;1300;24230;-28
2022/05/13 11:44:09;;;;;;;1.30;0.60;;;;;;;27.24;28.25;99190.60;103666;1300;24208;-24
2022/05/13 11:46:38;;;;;;;0.50;0.40;;;;;;;27.50;28.05;99191.09;103691;1300;24172;-28
2022/05/13 11:49:11;;;;;;;2.40;0.20;;;;;;;27.81;27.75;99195.07;103702;1300;22521;-28
2022/05/13 11:51:40;;;;;;;0.70;0.30;;;;;;;27.72;27.24;99192.15;103611;1300;24230;-28
2022/05/13 11:54:15;;;;;;;0.90;0.40;;;;;;;27.53;27.44;99185.17;103731;1300;24282;-28
2022/05/13 11:56:46;;;;;;;0.80;0.40;;;;;;;27.11;27.66;99186.20;103747;1300;22861;-24
2022/05/13 11:59:22;;;;;;;1.00;0.50;;;;;;;27.04;28.30;99183.44;103698;1300;23602;-27
2022/05/13 12:01:53;;;;;;;1.50;0.30;;;;;;;26.31;29.38;99180.45;103775;1300;22781;-28
2022/05/13 12:04:22;;;;;;;1.20;0.50;;;;;;;26.28;29.47;99176.27;103750;1299;25009;-24
2022/05/13 12:06:51;;;;;;;1.20;0.30;;;;;;;26.50;29.42;99172.42;103737;1299;24329;-28
2022/05/13 12:09:23;;;;;;;2.40;0.30;;;;;;;25.77;32.01;99172.09;103769;1300;24231;-25
2022/05/13 12:11:56;;;;;;;0.70;0.40;;;;;;;24.87;32.79;99170.02;103734;1300;24341;-24